createdAt,value
2019-05-01T00:00:31.377Z,81.45
2019-05-01T00:01:31.382Z,81.59
2019-05-01T00:02:31.351Z,81.48
2019-05-01T00:03:31.338Z,82.00
2019-05-01T00:04:31.326Z,81.69
2019-05-01T00:05:31.319Z,81.28
2019-05-01T00:06:31.330Z,81.38
2019-05-01T00:07:31.309Z,82.45
2019-05-01T00:08:31.287Z,81.90
2019-05-01T00:09:31.278Z,81.90
2019-05-01T00:10:31.264Z,81.38
2019-05-01T00:11:31.261Z,81.69
2019-05-01T00:12:31.250Z,81.11
2019-05-01T00:13:31.233Z,81.21
2019-05-01T00:14:31.226Z,81.42
2019-05-01T00:15:31.216Z,81.52
2019-05-01T00:16:31.206Z,81.42
2019-05-01T00:17:31.207Z,81.52
2019-05-01T00:18:31.181Z,81.73
2019-05-01T00:19:31.172Z,81.83
2019-05-01T00:20:31.166Z,82.45
2019-05-01T00:21:31.158Z,81.83
2019-05-01T00:22:31.154Z,81.73
2019-05-01T00:23:31.167Z,81.42
2019-05-01T00:24:31.125Z,81.73
2019-05-01T00:25:31.107Z,81.76
2019-05-01T00:26:31.097Z,81.42
2019-05-01T00:27:31.120Z,81.87
2019-05-01T00:28:31.076Z,81.05
2019-05-01T00:29:31.067Z,81.76
2019-05-01T00:30:31.059Z,81.46
2019-05-01T00:31:31.059Z,82.48
2019-05-01T00:32:31.048Z,82.69
2019-05-01T00:33:31.024Z,82.79
2019-05-01T00:34:31.016Z,82.79
2019-05-01T00:35:31.016Z,83.20
2019-05-01T00:36:30.994Z,83.72
2019-05-01T00:37:31.012Z,83.62
2019-05-01T00:38:30.984Z,83.72
2019-05-01T00:39:30.969Z,83.83
2019-05-01T00:40:30.950Z,83.83
2019-05-01T00:41:30.955Z,83.65
2019-05-01T00:42:30.941Z,83.97
2019-05-01T00:43:30.924Z,83.35
2019-05-01T00:44:30.916Z,83.20
2019-05-01T00:45:30.902Z,82.69
2019-05-01T00:46:30.889Z,82.69
2019-05-01T00:47:30.892Z,83.45
2019-05-01T00:48:30.867Z,82.53
2019-05-01T00:49:30.862Z,82.73
2019-05-01T00:50:30.901Z,82.83
2019-05-01T00:51:30.854Z,82.93
2019-05-01T00:52:31.018Z,82.93
2019-05-01T00:53:30.819Z,82.83
2019-05-01T00:54:30.814Z,82.93
2019-05-01T00:55:30.823Z,82.73
2019-05-01T00:56:30.785Z,82.63
2019-05-01T00:57:30.793Z,83.04
2019-05-01T00:58:30.775Z,83.07
2019-05-01T00:59:30.753Z,82.77
2019-05-01T01:00:42.558Z,82.87
2019-05-01T01:01:31.736Z,82.97
2019-05-01T01:02:30.749Z,82.87
2019-05-01T01:03:30.731Z,83.59
2019-05-01T01:04:30.701Z,84.31
2019-05-01T01:05:30.777Z,84.21
2019-05-01T01:06:30.685Z,84.21
2019-05-01T01:07:30.669Z,84.52
2019-05-01T01:08:30.676Z,85.55
2019-05-01T01:09:30.651Z,85.65
2019-05-01T01:10:30.639Z,85.34
2019-05-01T01:11:30.630Z,85.44
2019-05-01T01:12:30.616Z,85.55
2019-05-01T01:13:30.623Z,85.24
2019-05-01T01:14:30.598Z,85.34
2019-05-01T01:15:30.599Z,84.93
2019-05-01T01:16:30.595Z,84.72
2019-05-01T01:17:30.580Z,85.49
2019-05-01T01:18:30.569Z,85.96
2019-05-01T01:19:30.555Z,85.65
2019-05-01T01:20:30.546Z,85.69
2019-05-01T01:21:30.528Z,85.79
2019-05-01T01:22:30.542Z,85.49
2019-05-01T01:23:30.515Z,85.59
2019-05-01T01:24:30.497Z,85.69
2019-05-01T01:25:30.481Z,86.00
2019-05-01T01:26:30.480Z,85.69
2019-05-01T01:27:30.463Z,85.89
2019-05-01T01:28:30.462Z,86.21
2019-05-01T01:29:30.438Z,86.21
2019-05-01T01:30:30.428Z,85.69
2019-05-01T01:31:30.419Z,86.21
2019-05-01T01:32:30.423Z,86.21
2019-05-01T01:33:30.428Z,87.44
2019-05-01T01:34:30.394Z,87.24
2019-05-01T01:35:30.415Z,86.52
2019-05-01T01:36:30.366Z,87.44
2019-05-01T01:37:30.367Z,86.52
2019-05-01T01:38:30.358Z,87.13
2019-05-01T01:39:30.334Z,87.24
2019-05-01T01:40:30.361Z,87.13
2019-05-01T01:41:30.313Z,87.44
2019-05-01T01:42:30.303Z,87.34
2019-05-01T01:43:30.304Z,87.24
2019-05-01T01:44:30.291Z,87.13
2019-05-01T01:45:30.273Z,87.13
2019-05-01T01:46:30.265Z,87.24
2019-05-01T01:47:30.252Z,87.44
2019-05-01T01:48:30.263Z,87.48
2019-05-01T01:49:30.230Z,87.07
2019-05-01T01:50:30.225Z,87.44
2019-05-01T01:51:30.225Z,87.24
2019-05-01T01:52:30.202Z,87.03
2019-05-01T01:53:30.206Z,87.27
2019-05-01T01:54:30.195Z,87.59
2019-05-01T01:55:30.187Z,87.38
2019-05-01T01:56:30.159Z,87.79
2019-05-01T01:57:30.146Z,87.48
2019-05-01T01:58:30.147Z,86.97
2019-05-01T01:59:30.132Z,87.27
2019-05-01T02:00:30.124Z,87.38
2019-05-01T02:01:30.106Z,87.48
2019-05-01T02:02:30.105Z,87.90
2019-05-01T02:03:30.091Z,87.79
2019-05-01T02:04:30.090Z,87.79
2019-05-01T02:05:30.063Z,87.79
2019-05-01T02:06:30.087Z,87.59
2019-05-01T02:07:30.048Z,86.87
2019-05-01T02:08:30.053Z,87.59
2019-05-01T02:09:30.032Z,87.48
2019-05-01T02:10:42.315Z,87.52
2019-05-01T02:11:31.006Z,87.79
2019-05-01T02:12:29.989Z,88.62
2019-05-01T02:13:29.984Z,88.65
2019-05-01T02:14:29.980Z,88.62
2019-05-01T02:15:29.976Z,88.51
2019-05-01T02:16:29.949Z,88.10
2019-05-01T02:17:29.942Z,87.90
2019-05-01T02:18:29.926Z,87.79
2019-05-01T02:19:29.945Z,87.69
2019-05-01T02:20:29.911Z,88.20
2019-05-01T02:21:29.898Z,87.90
2019-05-01T02:22:29.898Z,88.45
2019-05-01T02:23:29.875Z,88.35
2019-05-01T02:24:29.882Z,88.65
2019-05-01T02:25:29.874Z,88.45
2019-05-01T02:26:29.845Z,88.35
2019-05-01T02:27:29.840Z,88.14
2019-05-01T02:28:29.832Z,88.56
2019-05-01T02:29:29.825Z,88.65
2019-05-01T02:30:29.800Z,88.96
2019-05-01T02:31:29.854Z,89.17
2019-05-01T02:32:29.814Z,89.17
2019-05-01T02:33:29.774Z,89.11
2019-05-01T02:34:29.775Z,89.22
2019-05-01T02:35:30.438Z,89.73
2019-05-01T02:36:29.739Z,89.94
2019-05-01T02:37:29.727Z,89.94
2019-05-01T02:38:29.716Z,89.22
2019-05-01T02:39:29.728Z,89.32
2019-05-01T02:40:29.697Z,89.83
2019-05-01T02:41:29.685Z,89.73
2019-05-01T02:42:29.692Z,89.52
2019-05-01T02:43:29.663Z,89.73
2019-05-01T02:44:29.683Z,89.83
2019-05-01T02:45:29.642Z,89.83
2019-05-01T02:46:29.638Z,89.94
2019-05-01T02:47:29.629Z,89.73
2019-05-01T02:48:29.612Z,89.22
2019-05-01T02:49:29.622Z,89.73
2019-05-01T02:50:29.597Z,89.79
2019-05-01T02:51:29.591Z,89.62
2019-05-01T02:52:29.568Z,89.11
2019-05-01T02:53:29.561Z,89.73
2019-05-01T02:54:29.583Z,89.62
2019-05-01T02:55:29.543Z,89.94
2019-05-01T02:56:29.537Z,89.73
2019-05-01T02:57:29.530Z,89.73
2019-05-01T02:58:29.512Z,89.62
2019-05-01T02:59:29.526Z,89.62
2019-05-01T03:00:29.490Z,89.83
2019-05-01T03:01:45.429Z,89.42
2019-05-01T03:02:30.462Z,89.42
2019-05-01T03:03:29.468Z,89.22
2019-05-01T03:04:29.454Z,89.42
2019-05-01T03:05:29.443Z,89.32
2019-05-01T03:06:29.438Z,89.11
2019-05-01T03:07:29.423Z,89.11
2019-05-01T03:08:29.405Z,89.67
2019-05-01T03:09:29.406Z,89.73
2019-05-01T03:10:29.398Z,89.62
2019-05-01T03:11:29.375Z,89.73
2019-05-01T03:12:29.361Z,89.73
2019-05-01T03:13:29.365Z,89.73
2019-05-01T03:14:29.361Z,89.32
2019-05-01T03:15:29.347Z,89.46
2019-05-01T03:16:29.322Z,89.52
2019-05-01T03:17:29.323Z,88.84
2019-05-01T03:18:29.317Z,88.80
2019-05-01T03:19:29.292Z,89.32
2019-05-01T03:20:29.288Z,89.42
2019-05-01T03:21:29.270Z,89.11
2019-05-01T03:22:29.254Z,89.62
2019-05-01T03:23:29.249Z,89.67
2019-05-01T03:24:29.249Z,89.87
2019-05-01T03:25:29.234Z,89.36
2019-05-01T03:26:29.213Z,89.36
2019-05-01T03:27:29.204Z,89.87
2019-05-01T03:28:29.201Z,89.87
2019-05-01T03:29:29.184Z,89.98
2019-05-01T03:30:29.205Z,89.87
2019-05-01T03:31:29.169Z,89.77
2019-05-01T03:32:29.162Z,89.87
2019-05-01T03:33:29.143Z,89.77
2019-05-01T03:34:29.147Z,90.19
2019-05-01T03:35:29.148Z,89.67
2019-05-01T03:36:29.121Z,89.25
2019-05-01T03:37:29.097Z,89.50
2019-05-01T03:38:29.085Z,89.36
2019-05-01T03:39:29.100Z,90.02
2019-05-01T03:40:29.065Z,90.02
2019-05-01T03:41:29.058Z,89.81
2019-05-01T03:42:29.068Z,89.71
2019-05-01T03:43:29.043Z,89.87
2019-05-01T03:44:29.030Z,89.81
2019-05-01T03:45:29.023Z,89.71
2019-05-01T03:46:29.011Z,89.92
2019-05-01T03:47:28.992Z,89.92
2019-05-01T03:48:28.994Z,89.29
2019-05-01T03:49:28.981Z,89.29
2019-05-01T03:50:28.961Z,89.50
2019-05-01T03:51:28.966Z,89.29
2019-05-01T03:52:28.961Z,89.81
2019-05-01T03:53:28.934Z,89.81
2019-05-01T03:54:28.937Z,89.40
2019-05-01T03:55:28.913Z,89.50
2019-05-01T03:56:28.928Z,88.98
2019-05-01T03:57:28.894Z,89.40
2019-05-01T03:58:28.879Z,88.78
2019-05-01T03:59:28.919Z,88.71
2019-05-01T04:00:28.858Z,89.03
2019-05-01T04:01:28.872Z,88.61
2019-05-01T04:02:33.739Z,88.31
2019-05-01T04:03:29.838Z,88.31
2019-05-01T04:04:28.836Z,89.03
2019-05-01T04:05:28.882Z,89.65
2019-05-01T04:06:28.804Z,89.44
2019-05-01T04:07:28.792Z,89.44
2019-05-01T04:08:28.780Z,89.54
2019-05-01T04:09:28.766Z,89.34
2019-05-01T04:10:28.783Z,89.65
2019-05-01T04:11:28.765Z,89.86
2019-05-01T04:12:28.742Z,89.86
2019-05-01T04:13:28.721Z,89.75
2019-05-01T04:14:28.723Z,89.54
2019-05-01T04:15:28.703Z,89.54
2019-05-01T04:16:28.711Z,89.34
2019-05-01T04:17:28.692Z,89.44
2019-05-01T04:18:28.683Z,89.54
2019-05-01T04:19:28.666Z,89.44
2019-05-01T04:20:28.646Z,89.13
2019-05-01T04:21:28.657Z,88.71
2019-05-01T04:22:28.732Z,88.71
2019-05-01T04:23:28.619Z,88.71
2019-05-01T04:24:28.606Z,88.51
2019-05-01T04:25:28.594Z,88.61
2019-05-01T04:26:28.605Z,88.51
2019-05-01T04:27:28.601Z,88.10
2019-05-01T04:28:28.576Z,88.41
2019-05-01T04:29:28.557Z,88.92
2019-05-01T04:30:28.544Z,89.75
2019-05-01T04:31:28.531Z,89.75
2019-05-01T04:32:28.547Z,89.75
2019-05-01T04:33:28.511Z,88.92
2019-05-01T04:34:28.513Z,89.23
2019-05-01T04:35:28.502Z,88.92
2019-05-01T04:36:28.481Z,89.75
2019-05-01T04:37:28.481Z,89.95
2019-05-01T04:38:28.489Z,90.26
2019-05-01T04:39:28.449Z,90.06
2019-05-01T04:40:28.442Z,90.06
2019-05-01T04:41:28.433Z,90.47
2019-05-01T04:42:28.442Z,90.37
2019-05-01T04:43:28.419Z,89.54
2019-05-01T04:44:28.411Z,90.16
2019-05-01T04:45:28.397Z,89.54
2019-05-01T04:46:28.381Z,90.37
2019-05-01T04:47:28.379Z,90.16
2019-05-01T04:48:28.363Z,90.47
2019-05-01T04:49:28.363Z,90.06
2019-05-01T04:50:28.350Z,90.26
2019-05-01T04:51:28.333Z,89.95
2019-05-01T04:52:28.330Z,90.37
2019-05-01T04:53:28.312Z,90.68
2019-05-01T04:54:28.309Z,90.58
2019-05-01T04:55:28.280Z,90.68
2019-05-01T04:56:28.278Z,90.37
2019-05-01T04:57:28.293Z,90.58
2019-05-01T04:58:28.256Z,90.37
2019-05-01T04:59:28.239Z,90.89
2019-05-01T05:00:28.230Z,90.78
2019-05-01T05:01:28.218Z,90.68
2019-05-01T05:02:28.239Z,90.99
2019-05-01T05:03:28.210Z,90.99
2019-05-01T05:04:28.186Z,90.99
2019-05-01T05:05:28.193Z,90.84
2019-05-01T05:06:28.170Z,91.20
2019-05-01T05:07:28.179Z,91.09
2019-05-01T05:08:28.154Z,91.05
2019-05-01T05:09:28.139Z,91.05
2019-05-01T05:10:28.122Z,91.16
2019-05-01T05:11:28.120Z,91.36
2019-05-01T05:12:28.100Z,90.95
2019-05-01T05:13:28.109Z,91.16
2019-05-01T05:14:28.081Z,90.95
2019-05-01T05:15:28.088Z,90.95
2019-05-01T05:16:28.080Z,90.43
2019-05-01T05:17:28.064Z,90.95
2019-05-01T05:18:28.057Z,90.95
2019-05-01T05:19:28.047Z,91.05
2019-05-01T05:20:28.017Z,90.74
2019-05-01T05:21:28.018Z,90.91
2019-05-01T05:22:27.996Z,90.74
2019-05-01T05:23:28.003Z,91.11
2019-05-01T05:24:27.977Z,91.42
2019-05-01T05:25:27.980Z,90.28
2019-05-01T05:26:27.959Z,90.28
2019-05-01T05:27:27.948Z,91.52
2019-05-01T05:28:27.952Z,91.26
2019-05-01T05:29:27.929Z,91.32
2019-05-01T05:30:27.925Z,91.11
2019-05-01T05:31:27.932Z,91.11
2019-05-01T05:32:27.902Z,91.42
2019-05-01T05:33:27.922Z,90.91
2019-05-01T05:34:27.873Z,90.91
2019-05-01T05:35:27.883Z,90.59
2019-05-01T05:36:27.851Z,90.80
2019-05-01T05:37:27.839Z,91.07
2019-05-01T05:38:27.874Z,90.55
2019-05-01T05:39:27.817Z,90.45
2019-05-01T05:40:27.817Z,90.76
2019-05-01T05:41:27.798Z,90.97
2019-05-01T05:42:27.792Z,90.76
2019-05-01T05:43:27.796Z,91.07
2019-05-01T05:44:27.767Z,90.45
2019-05-01T05:45:27.758Z,90.97
2019-05-01T05:46:27.744Z,90.66
2019-05-01T05:47:27.737Z,90.97
2019-05-01T05:48:27.740Z,90.97
2019-05-01T05:49:27.729Z,90.76
2019-05-01T05:50:27.704Z,91.28
2019-05-01T05:51:27.693Z,90.76
2019-05-01T05:52:27.683Z,90.66
2019-05-01T05:53:27.768Z,90.41
2019-05-01T05:54:27.670Z,90.55
2019-05-01T05:55:27.675Z,90.61
2019-05-01T05:56:27.648Z,90.51
2019-05-01T05:57:29.909Z,90.51
2019-05-01T05:58:27.628Z,90.41
2019-05-01T05:59:27.644Z,90.61
2019-05-01T06:00:27.602Z,90.51
2019-05-01T06:01:27.589Z,90.41
2019-05-01T06:02:27.578Z,90.31
2019-05-01T06:03:31.374Z,90.31
2019-05-01T06:04:27.569Z,90.37
2019-05-01T06:05:27.550Z,90.47
2019-05-01T06:06:27.535Z,90.72
2019-05-01T06:07:27.524Z,90.37
2019-05-01T06:08:27.544Z,90.72
2019-05-01T06:09:27.525Z,90.37
2019-05-01T06:10:27.493Z,90.16
2019-05-01T06:11:29.735Z,90.37
2019-05-01T06:12:28.492Z,89.85
2019-05-01T06:13:27.460Z,90.26
2019-05-01T06:14:31.312Z,89.85
2019-05-01T06:15:28.457Z,89.29
2019-05-01T06:16:27.429Z,89.34
2019-05-01T06:17:28.488Z,89.50
2019-05-01T06:18:27.408Z,89.61
2019-05-01T06:19:27.436Z,89.40
2019-05-01T06:20:27.680Z,88.78
2019-05-01T06:21:27.380Z,88.37
2019-05-01T06:22:27.366Z,88.43
2019-05-01T06:23:27.359Z,88.33
2019-05-01T06:24:27.552Z,88.47
2019-05-01T06:25:27.409Z,88.23
2019-05-01T06:26:27.377Z,87.65
2019-05-01T06:27:27.314Z,87.51
2019-05-01T06:28:29.732Z,88.12
2019-05-01T06:29:30.957Z,88.02
2019-05-01T06:30:28.296Z,87.81
2019-05-01T06:31:27.275Z,88.02
2019-05-01T06:32:28.754Z,88.23
2019-05-01T06:33:28.264Z,88.12
2019-05-01T06:34:28.767Z,87.77
2019-05-01T06:35:27.233Z,87.26
2019-05-01T06:36:27.533Z,87.05
2019-05-01T06:37:27.301Z,86.85
2019-05-01T06:38:27.222Z,86.95
2019-05-01T06:39:27.188Z,87.15
2019-05-01T06:40:27.201Z,86.95
2019-05-01T06:41:28.629Z,86.85
2019-05-01T06:42:28.164Z,87.01
2019-05-01T06:43:27.324Z,87.12
2019-05-01T06:44:27.135Z,87.12
2019-05-01T06:45:27.139Z,86.80
2019-05-01T06:46:28.946Z,87.12
2019-05-01T06:47:27.118Z,86.91
2019-05-01T06:48:27.106Z,86.35
2019-05-01T06:49:29.429Z,86.56
2019-05-01T06:50:27.094Z,86.15
2019-05-01T06:51:27.066Z,86.25
2019-05-01T06:52:29.251Z,86.35
2019-05-01T06:53:27.046Z,86.25
2019-05-01T06:54:27.032Z,86.05
2019-05-01T06:55:28.785Z,86.05
2019-05-01T06:56:27.008Z,85.60
2019-05-01T06:57:27.001Z,85.74
2019-05-01T06:58:27.006Z,85.70
2019-05-01T06:59:31.388Z,85.60
2019-05-01T07:00:27.987Z,85.60
2019-05-01T07:01:26.963Z,85.08
2019-05-01T07:02:30.000Z,85.35
2019-05-01T07:03:27.976Z,85.25
2019-05-01T07:04:26.925Z,85.25
2019-05-01T07:05:26.927Z,84.94
2019-05-01T07:06:31.140Z,84.84
2019-05-01T07:07:27.911Z,85.25
2019-05-01T07:08:29.570Z,83.91
2019-05-01T07:09:28.448Z,83.67
2019-05-01T07:10:31.442Z,83.46
2019-05-01T07:11:27.875Z,83.56
2019-05-01T07:12:28.246Z,83.77
2019-05-01T07:13:26.840Z,83.26
2019-05-01T07:14:26.842Z,83.36
2019-05-01T07:15:28.418Z,83.32
2019-05-01T07:16:26.976Z,83.42
2019-05-01T07:17:26.813Z,83.63
2019-05-01T07:18:29.056Z,82.50
2019-05-01T07:19:26.772Z,82.40
2019-05-01T07:20:26.824Z,82.50
2019-05-01T07:21:27.781Z,82.29
2019-05-01T07:22:26.745Z,81.88
2019-05-01T07:23:26.736Z,81.85
2019-05-01T07:24:28.034Z,81.85
2019-05-01T07:25:26.709Z,81.74
2019-05-01T07:26:26.723Z,81.54
2019-05-01T07:27:26.705Z,81.13
2019-05-01T07:28:28.842Z,80.99
2019-05-01T07:29:27.665Z,81.13
2019-05-01T07:30:26.656Z,80.68
2019-05-01T07:31:30.981Z,80.47
2019-05-01T07:32:27.643Z,80.07
2019-05-01T07:33:26.634Z,80.07
2019-05-01T07:34:27.465Z,79.72
2019-05-01T07:35:26.601Z,80.13
2019-05-01T07:36:26.602Z,80.13
2019-05-01T07:37:27.792Z,79.62
2019-05-01T07:38:26.571Z,79.41
2019-05-01T07:39:26.558Z,80.03
2019-05-01T07:40:29.183Z,80.64
2019-05-01T07:41:26.583Z,80.60
2019-05-01T07:42:26.553Z,80.91
2019-05-01T07:43:26.512Z,80.30
2019-05-01T07:44:30.048Z,80.19
2019-05-01T07:45:27.490Z,79.68
2019-05-01T07:46:26.489Z,80.19
2019-05-01T07:47:30.534Z,79.89
2019-05-01T07:48:27.462Z,79.44
2019-05-01T07:49:26.448Z,79.03
2019-05-01T07:50:31.612Z,78.31
2019-05-01T07:51:32.773Z,78.31
2019-05-01T08:00:27.472Z,76.81
2019-05-01T08:01:27.464Z,76.40
2019-05-01T08:02:30.954Z,76.71
2019-05-01T08:03:28.436Z,77.12
2019-05-01T08:04:35.962Z,76.67
2019-05-01T08:05:28.416Z,77.08
2019-05-01T08:06:27.425Z,76.26
2019-05-01T08:07:27.808Z,76.47
2019-05-01T08:08:27.388Z,76.57
2019-05-01T08:09:27.379Z,76.26
2019-05-01T08:10:30.825Z,76.16
2019-05-01T08:11:28.379Z,75.24
2019-05-01T08:12:27.342Z,75.82
2019-05-01T08:13:30.591Z,75.71
2019-05-01T08:14:28.342Z,75.51
2019-05-01T08:15:32.301Z,75.21
2019-05-01T08:16:28.312Z,75.07
2019-05-01T08:17:27.292Z,75.17
2019-05-01T08:18:27.923Z,74.15
2019-05-01T08:19:27.267Z,73.44
2019-05-01T08:20:27.272Z,73.84
2019-05-01T08:21:27.567Z,73.54
2019-05-01T08:22:27.236Z,72.92
2019-05-01T08:23:27.229Z,72.92
2019-05-01T08:24:27.214Z,73.74
2019-05-01T08:25:28.780Z,73.71
2019-05-01T08:26:28.217Z,73.30
2019-05-01T08:27:27.182Z,72.28
2019-05-01T08:28:27.718Z,71.97
2019-05-01T08:29:27.162Z,71.46
2019-05-01T08:30:27.167Z,72.04
2019-05-01T08:31:27.788Z,72.48
2019-05-01T08:32:27.268Z,72.86
2019-05-01T08:33:27.119Z,72.79
2019-05-01T08:34:29.679Z,73.16
2019-05-01T08:35:27.117Z,73.06
2019-05-01T08:36:27.091Z,73.36
2019-05-01T08:37:27.290Z,73.16
2019-05-01T08:38:29.865Z,72.34
2019-05-01T08:39:28.054Z,72.00
2019-05-01T08:40:27.066Z,72.52
2019-05-01T08:41:31.690Z,72.72
2019-05-01T08:42:28.024Z,72.11
2019-05-01T08:43:27.013Z,71.19
2019-05-01T08:44:29.566Z,70.44
2019-05-01T08:45:27.019Z,70.44
2019-05-01T08:46:26.983Z,71.26
2019-05-01T08:47:27.774Z,71.26
2019-05-01T08:48:30.781Z,71.46
2019-05-01T08:49:27.952Z,70.82
2019-05-01T08:50:26.976Z,70.75
2019-05-01T08:51:30.140Z,71.33
2019-05-01T08:52:27.919Z,71.23
2019-05-01T08:53:26.907Z,69.80
2019-05-01T08:54:28.891Z,69.70
2019-05-01T08:55:27.884Z,70.41
2019-05-01T08:56:26.882Z,69.26
2019-05-01T08:57:32.446Z,69.67
2019-05-01T08:58:27.857Z,68.54
2019-05-01T08:59:26.843Z,68.65
2019-05-01T09:00:31.000Z,68.31
2019-05-01T09:01:27.827Z,68.31
2019-05-01T09:02:26.810Z,67.32
2019-05-01T09:03:26.800Z,67.60
2019-05-01T09:04:30.335Z,67.49
2019-05-01T09:05:30.033Z,66.88
2019-05-01T09:06:34.483Z,66.78
2019-05-01T09:07:27.787Z,66.85
2019-05-01T09:08:31.519Z,67.66
2019-05-01T09:09:27.764Z,67.26
2019-05-01T09:10:26.726Z,66.75
2019-05-01T09:11:26.719Z,65.83
2019-05-01T09:12:26.727Z,64.48
2019-05-01T09:13:26.696Z,64.48
2019-05-01T09:14:29.836Z,65.50
2019-05-01T09:15:27.673Z,64.04
2019-05-01T09:16:28.280Z,62.11
2019-05-01T09:17:26.667Z,62.32
2019-05-01T09:18:26.640Z,62.93
2019-05-01T09:19:26.685Z,62.52
2019-05-01T09:20:26.622Z,61.71
2019-05-01T09:21:26.611Z,61.98
2019-05-01T09:22:26.615Z,59.95
2019-05-01T09:23:26.589Z,59.95
2019-05-01T09:24:28.054Z,59.24
2019-05-01T09:25:26.572Z,58.53
2019-05-01T09:26:26.559Z,59.31
2019-05-01T09:27:29.607Z,59.41
2019-05-01T09:28:26.552Z,59.52
2019-05-01T09:29:26.524Z,59.11
2019-05-01T09:30:27.172Z,58.58
2019-05-01T09:31:26.506Z,58.98
2019-05-01T09:32:26.492Z,58.88
2019-05-01T09:33:30.816Z,58.17
2019-05-01T09:34:27.475Z,58.47
2019-05-01T09:35:26.502Z,58.24
2019-05-01T09:36:26.449Z,57.33
2019-05-01T09:37:26.439Z,57.53
2019-05-01T09:38:26.445Z,58.65
2019-05-01T09:39:26.416Z,58.75
2019-05-01T09:40:26.406Z,56.82
2019-05-01T09:41:37.598Z,57.43
2019-05-01T09:42:27.385Z,57.10
2019-05-01T09:43:26.403Z,56.29
2019-05-01T09:44:26.363Z,56.99
2019-05-01T09:45:26.364Z,56.36
2019-05-01T09:46:26.346Z,56.87
2019-05-01T09:47:26.331Z,55.35
2019-05-01T09:48:26.321Z,54.84
2019-05-01T09:49:26.313Z,54.21
2019-05-01T09:50:30.459Z,53.70
2019-05-01T09:51:27.288Z,53.60
2019-05-01T09:52:26.280Z,53.47
2019-05-01T09:53:29.710Z,53.30
2019-05-01T09:54:27.259Z,53.27
2019-05-01T09:55:26.246Z,51.35
2019-05-01T09:56:26.236Z,50.84
2019-05-01T09:57:26.230Z,52.56
2019-05-01T09:58:26.214Z,51.86
2019-05-01T09:59:26.211Z,51.02
2019-05-01T10:00:26.193Z,47.38
2019-05-01T10:01:31.700Z,48.11
2019-05-01T10:02:27.170Z,48.00
2019-05-01T10:03:26.163Z,47.80
2019-05-01T10:04:30.298Z,47.78
2019-05-01T10:05:29.059Z,48.39
2019-05-01T10:06:26.137Z,48.28
2019-05-01T10:07:29.114Z,48.87
2019-05-01T10:08:26.113Z,48.46
2019-05-01T10:09:26.907Z,48.24
2019-05-01T10:10:29.314Z,47.33
2019-05-01T10:11:26.077Z,48.24
2019-05-01T10:12:26.075Z,48.03
2019-05-01T10:13:26.066Z,48.32
2019-05-01T10:14:26.043Z,48.34
2019-05-01T10:15:26.065Z,48.14
2019-05-01T10:16:26.024Z,48.32
2019-05-01T10:17:26.027Z,49.13
2019-05-01T10:18:26.026Z,48.93
2019-05-01T10:19:25.991Z,48.22
2019-05-01T10:20:25.980Z,47.91
2019-05-01T10:21:27.106Z,47.31
2019-05-01T10:22:25.958Z,47.91
2019-05-01T10:23:25.948Z,47.39
2019-05-01T10:24:26.100Z,48.30
2019-05-01T10:25:25.940Z,48.19
2019-05-01T10:26:25.929Z,48.30
2019-05-01T10:27:25.906Z,47.89
2019-05-01T10:28:25.896Z,47.08
2019-05-01T10:29:27.583Z,45.65
2019-05-01T10:30:25.877Z,44.54
2019-05-01T10:31:25.900Z,44.84
2019-05-01T10:32:25.881Z,45.34
2019-05-01T10:33:29.035Z,44.74
2019-05-01T10:34:26.840Z,45.53
2019-05-01T10:35:25.820Z,44.42
2019-05-01T10:36:25.808Z,45.02
2019-05-01T10:37:28.460Z,43.71
2019-05-01T10:38:26.787Z,43.91
2019-05-01T10:39:25.780Z,43.30
2019-05-01T10:40:26.948Z,43.38
2019-05-01T10:41:26.757Z,43.59
2019-05-01T10:42:25.760Z,43.59
2019-05-01T10:43:25.734Z,43.69
2019-05-01T10:44:25.726Z,43.99
2019-05-01T10:45:25.714Z,44.19
2019-05-01T10:46:25.703Z,43.79
2019-05-01T10:47:26.003Z,43.79
2019-05-01T10:48:25.685Z,44.29
2019-05-01T10:49:25.673Z,43.06
2019-05-01T10:50:25.661Z,43.57
2019-05-01T10:51:25.651Z,43.87
2019-05-01T10:52:25.641Z,42.76
2019-05-01T10:53:25.643Z,41.65
2019-05-01T10:54:25.624Z,41.85
2019-05-01T10:55:25.610Z,41.45
2019-05-01T10:56:25.600Z,42.25
2019-05-01T10:57:25.592Z,43.14
2019-05-01T10:58:25.604Z,42.13
2019-05-01T10:59:25.567Z,44.35
2019-05-01T11:00:25.578Z,43.95
2019-05-01T11:01:25.546Z,43.22
2019-05-01T11:02:25.535Z,43.02
2019-05-01T11:03:25.524Z,41.41
2019-05-01T11:04:25.532Z,42.21
2019-05-01T11:05:25.504Z,41.00
2019-05-01T11:06:25.497Z,39.78
2019-05-01T11:07:25.487Z,39.70
2019-05-01T11:08:25.471Z,40.99
2019-05-01T11:09:25.480Z,39.28
2019-05-01T11:10:25.452Z,40.58
2019-05-01T11:11:25.458Z,41.19
2019-05-01T11:12:25.431Z,41.09
2019-05-01T11:13:25.445Z,40.77
2019-05-01T11:14:25.440Z,39.45
2019-05-01T11:15:25.400Z,39.96
2019-05-01T11:16:25.388Z,41.27
2019-05-01T11:17:25.380Z,40.97
2019-05-01T11:18:25.366Z,41.17
2019-05-01T11:19:25.383Z,40.24
2019-05-01T11:20:25.347Z,39.43
2019-05-01T11:21:25.334Z,39.12
2019-05-01T11:22:25.331Z,38.62
2019-05-01T11:23:25.311Z,38.21
2019-05-01T11:24:25.303Z,38.62
2019-05-01T11:25:25.310Z,38.31
2019-05-01T11:26:25.280Z,37.59
2019-05-01T11:27:25.272Z,37.29
2019-05-01T11:28:25.258Z,38.40
2019-05-01T11:29:25.252Z,38.29
2019-05-01T11:30:25.430Z,39.50
2019-05-01T11:31:25.226Z,39.78
2019-05-01T11:32:25.219Z,37.98
2019-05-01T11:33:25.206Z,38.58
2019-05-01T11:34:25.197Z,37.47
2019-05-01T11:35:25.186Z,38.18
2019-05-01T11:36:25.185Z,38.46
2019-05-01T11:37:25.164Z,38.66
2019-05-01T11:38:25.152Z,39.06
2019-05-01T11:39:25.141Z,39.64
2019-05-01T11:40:25.150Z,38.84
2019-05-01T11:41:25.133Z,38.72
2019-05-01T11:42:25.110Z,38.12
2019-05-01T11:43:25.099Z,38.02
2019-05-01T11:44:25.088Z,38.42
2019-05-01T11:45:25.078Z,38.22
2019-05-01T11:46:25.086Z,38.00
2019-05-01T11:47:25.055Z,38.10
2019-05-01T11:48:29.994Z,39.11
2019-05-01T11:49:26.037Z,38.89
2019-05-01T11:50:25.025Z,38.79
2019-05-01T11:51:25.045Z,38.07
2019-05-01T11:52:25.007Z,37.16
2019-05-01T11:53:24.998Z,37.16
2019-05-01T11:54:24.984Z,36.35
2019-05-01T11:55:24.971Z,36.35
2019-05-01T11:56:24.966Z,35.23
2019-05-01T11:57:24.963Z,35.43
2019-05-01T11:58:24.939Z,36.63
2019-05-01T11:59:24.929Z,35.63
2019-05-01T12:00:24.923Z,34.03
2019-05-01T12:01:24.913Z,34.81
2019-05-01T12:02:24.911Z,33.31
2019-05-01T12:03:24.887Z,33.59
2019-05-01T12:04:24.877Z,33.41
2019-05-01T12:05:24.878Z,32.89
2019-05-01T12:06:24.861Z,33.50
2019-05-01T12:07:24.866Z,34.18
2019-05-01T12:08:24.834Z,33.28
2019-05-01T12:09:24.823Z,33.18
2019-05-01T12:10:24.813Z,33.16
2019-05-01T12:11:24.802Z,32.86
2019-05-01T12:12:24.804Z,33.26
2019-05-01T12:13:24.783Z,32.55
2019-05-01T12:14:24.770Z,31.45
2019-05-01T12:15:24.760Z,32.05
2019-05-01T12:16:24.748Z,31.93
2019-05-01T12:17:24.932Z,31.13
2019-05-01T12:18:24.728Z,31.81
2019-05-01T12:19:24.724Z,30.77
2019-05-01T12:20:24.708Z,29.14
2019-05-01T12:21:24.705Z,29.00
2019-05-01T12:22:24.688Z,28.45
2019-05-01T12:23:24.680Z,26.42
2019-05-01T12:24:24.670Z,25.18
2019-05-01T12:25:24.658Z,23.94
2019-05-01T12:26:24.648Z,23.40
2019-05-01T12:27:24.638Z,21.98
2019-05-01T12:28:24.643Z,20.76
2019-05-01T12:29:24.618Z,20.43
2019-05-01T12:30:24.609Z,19.53
2019-05-01T12:31:24.600Z,19.21
2019-05-01T12:32:24.590Z,18.50
2019-05-01T12:33:24.613Z,17.60
2019-05-01T12:34:24.575Z,16.82
2019-05-01T12:35:24.561Z,16.50
2019-05-01T12:36:35.682Z,16.09
2019-05-01T12:37:25.541Z,14.82
2019-05-01T12:38:24.532Z,14.80
2019-05-01T12:39:24.535Z,14.29
2019-05-01T12:40:24.515Z,13.98
2019-05-01T12:41:24.506Z,14.64
2019-05-01T12:42:24.496Z,12.79
2019-05-01T12:43:24.487Z,11.62
2019-05-01T12:44:24.491Z,11.83
2019-05-01T12:45:24.468Z,12.40
2019-05-01T12:46:24.459Z,12.69
2019-05-01T12:47:24.450Z,12.67
2019-05-01T12:48:24.457Z,12.85
2019-05-01T12:49:24.449Z,12.75
2019-05-01T12:50:24.426Z,11.60
2019-05-01T12:51:24.439Z,12.35
2019-05-01T12:52:24.423Z,12.34
2019-05-01T12:53:24.410Z,11.57
2019-05-01T12:54:24.431Z,11.86
2019-05-01T12:55:24.629Z,11.47
2019-05-01T12:56:24.418Z,10.80
2019-05-01T12:57:24.435Z,10.79
2019-05-01T12:58:24.460Z,11.08
2019-05-01T12:59:24.422Z,11.26
2019-05-01T13:00:24.381Z,11.64